createdAt,value
2023-02-15T00:02:05.549Z,-72
2023-02-15T00:07:25.966Z,-77
2023-02-15T00:09:53.814Z,-77
2023-02-15T00:12:21.581Z,-76
2023-02-15T00:14:49.335Z,-77
2023-02-15T00:17:17.049Z,-77
2023-02-15T00:19:45.031Z,-77
2023-02-15T00:22:12.822Z,-77
2023-02-15T00:24:40.641Z,-77
2023-02-15T00:27:10.358Z,-77
2023-02-15T00:29:38.148Z,-77
2023-02-15T00:32:05.893Z,-77
2023-02-15T00:34:33.622Z,-77
2023-02-15T00:37:01.357Z,-77
2023-02-15T00:39:30.032Z,-77
2023-02-15T00:41:57.872Z,-77
2023-02-15T00:44:25.624Z,-77
2023-02-15T00:46:53.657Z,-77
2023-02-15T00:49:21.418Z,-77
2023-02-15T00:51:49.266Z,-77
2023-02-15T00:54:17.010Z,-77
2023-02-15T00:56:44.808Z,-77
2023-02-15T00:59:12.580Z,-77
2023-02-15T01:01:40.353Z,-77
2023-02-15T01:04:08.130Z,-77
2023-02-15T01:06:35.941Z,-76
2023-02-15T01:09:03.716Z,-77
2023-02-15T01:11:31.501Z,-76
2023-02-15T01:13:59.296Z,-77
2023-02-15T01:16:27.205Z,-77
2023-02-15T01:18:55.864Z,-77
2023-02-15T01:21:23.638Z,-76
2023-02-15T01:23:51.450Z,-77
2023-02-15T01:26:19.273Z,-77
2023-02-15T01:28:47.024Z,-77
2023-02-15T01:54:08.515Z,-77
2023-02-15T02:09:28.862Z,-77
2023-02-15T02:11:56.677Z,-77
2023-02-15T02:14:24.461Z,-77
2023-02-15T02:16:52.270Z,-77
2023-02-15T02:19:20.091Z,-77
2023-02-15T02:21:49.032Z,-77
2023-02-15T02:24:16.982Z,-77
2023-02-15T02:26:44.812Z,-77
2023-02-15T02:29:12.668Z,-77
2023-02-15T02:31:40.496Z,-77
2023-02-15T02:34:08.337Z,-77
2023-02-15T02:36:36.846Z,-76
2023-02-15T02:39:04.658Z,-77
2023-02-15T02:41:32.681Z,-77
2023-02-15T02:44:03.834Z,-77
2023-02-15T02:46:31.666Z,-77
2023-02-15T02:48:59.400Z,-77
2023-02-15T02:51:28.279Z,-77
2023-02-15T02:53:57.238Z,-77
2023-02-15T02:56:25.004Z,-76
2023-02-15T02:58:52.826Z,-77
2023-02-15T03:01:20.823Z,-76
2023-02-15T03:03:48.654Z,-76
2023-02-15T03:06:18.951Z,-76
2023-02-15T03:08:46.749Z,-77
2023-02-15T03:11:14.634Z,-76
2023-02-15T03:13:42.422Z,-76
2023-02-15T03:16:24.028Z,-76
2023-02-15T03:18:53.824Z,-77
2023-02-15T03:21:23.546Z,-77
2023-02-15T03:23:51.355Z,-77
2023-02-15T03:26:19.142Z,-76
2023-02-15T03:28:46.893Z,-76
2023-02-15T03:31:14.842Z,-76
2023-02-15T03:33:42.860Z,-77
2023-02-15T03:36:10.699Z,-76
2023-02-15T03:38:38.479Z,-76
2023-02-15T03:41:12.362Z,-77
2023-02-15T03:43:40.146Z,-77
2023-02-15T03:46:07.938Z,-76
2023-02-15T03:48:35.704Z,-78
2023-02-15T03:51:20.933Z,-77
2023-02-15T03:53:48.677Z,-76
2023-02-15T03:56:16.494Z,-77
2023-02-15T03:59:01.543Z,-77
2023-02-15T04:01:46.590Z,-77
2023-02-15T04:04:14.415Z,-78
2023-02-15T04:06:42.203Z,-78
2023-02-15T04:09:27.335Z,-76
2023-02-15T04:11:55.077Z,-76
2023-02-15T04:14:40.435Z,-76
2023-02-15T04:17:08.181Z,-76
2023-02-15T04:19:53.689Z,-77
2023-02-15T04:22:39.169Z,-76
2023-02-15T04:25:13.494Z,-76
2023-02-15T04:27:41.233Z,-76
2023-02-15T04:30:09.214Z,-76
2023-02-15T04:32:37.011Z,-76
2023-02-15T04:35:04.821Z,-77
2023-02-15T04:37:32.556Z,-76
2023-02-15T04:40:00.541Z,-77
2023-02-15T04:42:28.314Z,-77
2023-02-15T04:44:56.095Z,-76
2023-02-15T04:47:23.832Z,-76
2023-02-15T04:49:51.624Z,-76
2023-02-15T04:52:19.387Z,-76
2023-02-15T04:54:47.128Z,-76
2023-02-15T04:57:14.905Z,-76
2023-02-15T04:59:42.653Z,-77
2023-02-15T05:02:10.906Z,-76
2023-02-15T05:04:38.621Z,-76
2023-02-15T05:07:06.398Z,-76
2023-02-15T05:09:34.180Z,-76
2023-02-15T05:12:01.923Z,-76
2023-02-15T05:14:29.689Z,-76
2023-02-15T05:16:59.933Z,-77
2023-02-15T05:19:27.696Z,-77
2023-02-15T05:21:55.483Z,-78
2023-02-15T05:24:41.008Z,-76
2023-02-15T05:27:26.145Z,-77
2023-02-15T05:29:53.994Z,-76
2023-02-15T05:32:21.889Z,-77
2023-02-15T05:34:49.706Z,-76
2023-02-15T05:37:17.492Z,-76
2023-02-15T05:39:45.258Z,-77
2023-02-15T05:42:13.026Z,-76
2023-02-15T05:44:40.780Z,-77
2023-02-15T05:47:09.126Z,-77
2023-02-15T05:49:37.060Z,-77
2023-02-15T05:52:04.783Z,-77
2023-02-15T05:54:32.543Z,-77
2023-02-15T05:57:00.234Z,-76
2023-02-15T05:59:27.983Z,-76
2023-02-15T06:01:56.129Z,-76
2023-02-15T06:04:23.930Z,-77
2023-02-15T06:06:51.651Z,-77
2023-02-15T06:09:20.709Z,-78
2023-02-15T06:11:48.476Z,-78
2023-02-15T06:14:16.189Z,-77
2023-02-15T06:16:43.944Z,-78
2023-02-15T06:19:11.820Z,-78
2023-02-15T06:21:39.554Z,-78
2023-02-15T06:24:07.269Z,-78
2023-02-15T06:26:35.339Z,-78
2023-02-15T06:29:03.110Z,-78
2023-02-15T06:31:30.909Z,-78
2023-02-15T06:34:02.009Z,-79
2023-02-15T06:36:30.016Z,-76
2023-02-15T06:38:57.917Z,-77
2023-02-15T06:41:25.670Z,-77
2023-02-15T06:43:53.410Z,-77
2023-02-15T06:46:21.242Z,-78
2023-02-15T06:48:49.124Z,-77
2023-02-15T06:51:16.861Z,-78
2023-02-15T06:53:44.868Z,-77
2023-02-15T06:56:12.563Z,-78
2023-02-15T06:58:40.291Z,-76
2023-02-15T07:01:08.018Z,-77
2023-02-15T07:03:35.808Z,-77
2023-02-15T07:06:04.319Z,-77
2023-02-15T07:08:32.197Z,-77
2023-02-15T07:11:20.598Z,-77
2023-02-15T07:13:47.297Z,-77
2023-02-15T07:16:15.098Z,-77
2023-02-15T07:18:42.900Z,-77
2023-02-15T07:21:10.631Z,-77
2023-02-15T07:23:38.449Z,-78
2023-02-15T07:26:06.206Z,-76
2023-02-15T07:28:33.939Z,-77
2023-02-15T07:31:01.719Z,-77
2023-02-15T07:33:32.877Z,-77
2023-02-15T07:36:03.293Z,-77
2023-02-15T07:38:31.235Z,-77
2023-02-15T07:40:58.997Z,-77
2023-02-15T07:43:26.733Z,-77
2023-02-15T07:45:54.489Z,-78
2023-02-15T07:48:24.820Z,-77
2023-02-15T07:50:52.666Z,-77
2023-02-15T07:53:20.403Z,-77
2023-02-15T07:55:48.164Z,-77
2023-02-15T07:58:15.882Z,-78
2023-02-15T08:03:48.299Z,-69
2023-02-15T08:06:16.254Z,-69
2023-02-15T08:08:44.038Z,-70
2023-02-15T08:11:29.544Z,-69
2023-02-15T08:13:57.547Z,-72
2023-02-15T08:16:25.512Z,-73
2023-02-15T08:18:53.428Z,-74
2023-02-15T08:21:21.900Z,-70
2023-02-15T08:23:51.099Z,-70
2023-02-15T08:26:19.018Z,-71
2023-02-15T08:28:47.516Z,-70
2023-02-15T08:31:15.476Z,-70
2023-02-15T08:33:43.328Z,-69
2023-02-15T08:36:11.099Z,-70
2023-02-15T08:38:38.918Z,-70
2023-02-15T08:41:06.655Z,-70
2023-02-15T08:43:34.501Z,-72
2023-02-15T08:46:02.398Z,-72
2023-02-15T08:48:30.172Z,-70
2023-02-15T08:50:57.981Z,-70
2023-02-15T08:53:25.773Z,-71
2023-02-15T08:55:53.799Z,-72
2023-02-15T08:58:21.622Z,-72
2023-02-15T09:00:49.523Z,-73
2023-02-15T09:03:17.302Z,-73
2023-02-15T09:05:45.129Z,-72
2023-02-15T09:08:12.905Z,-72
2023-02-15T09:10:40.827Z,-72
2023-02-15T09:13:08.726Z,-70
2023-02-15T09:15:36.562Z,-70
2023-02-15T09:18:07.050Z,-70
2023-02-15T09:20:34.846Z,-70
2023-02-15T09:23:02.689Z,-70
2023-02-15T09:25:30.481Z,-70
2023-02-15T09:27:58.428Z,-70
2023-02-15T09:30:26.381Z,-70
2023-02-15T09:32:54.273Z,-70
2023-02-15T09:35:22.095Z,-70
2023-02-15T09:37:49.919Z,-70
2023-02-15T09:40:17.721Z,-70
2023-02-15T09:42:45.527Z,-70
2023-02-15T09:45:13.667Z,-70
2023-02-15T09:47:41.491Z,-70
2023-02-15T09:50:10.032Z,-70
2023-02-15T09:52:37.787Z,-70
2023-02-15T09:55:06.007Z,-70
2023-02-15T09:57:33.848Z,-70
2023-02-15T10:00:01.922Z,-70
2023-02-15T10:02:30.727Z,-70
2023-02-15T10:04:58.507Z,-70
2023-02-15T10:07:26.279Z,-70
2023-02-15T10:09:54.133Z,-70
2023-02-15T10:12:21.934Z,-70
2023-02-15T10:14:50.091Z,-70
2023-02-15T10:17:18.297Z,-70
2023-02-15T10:19:46.155Z,-70
2023-02-15T10:22:13.957Z,-70
2023-02-15T10:24:44.722Z,-70
2023-02-15T10:27:14.389Z,-69
2023-02-15T10:29:42.475Z,-69
2023-02-15T10:32:10.401Z,-70
2023-02-15T10:34:38.371Z,-70
2023-02-15T10:37:06.510Z,-70
2023-02-15T10:39:34.328Z,-70
2023-02-15T10:42:02.245Z,-70
2023-02-15T10:44:30.052Z,-70
2023-02-15T10:46:58.010Z,-70
2023-02-15T10:49:25.861Z,-70
2023-02-15T10:51:53.762Z,-70
2023-02-15T10:54:21.626Z,-70
2023-02-15T10:56:49.525Z,-70
2023-02-15T10:59:18.136Z,-70
2023-02-15T11:01:46.020Z,-70
2023-02-15T11:04:14.875Z,-70
2023-02-15T11:06:43.988Z,-70
2023-02-15T11:09:11.831Z,-70
2023-02-15T11:11:40.310Z,-70
2023-02-15T11:14:08.108Z,-70
2023-02-15T11:16:35.936Z,-70
2023-02-15T11:19:04.410Z,-70
2023-02-15T11:21:33.536Z,-70
2023-02-15T11:24:01.298Z,-70
2023-02-15T11:26:29.101Z,-70
2023-02-15T11:28:58.075Z,-69
2023-02-15T11:31:25.993Z,-70
2023-02-15T11:33:53.880Z,-70
2023-02-15T11:36:21.685Z,-70
2023-02-15T11:38:49.442Z,-70
2023-02-15T11:41:17.961Z,-69
2023-02-15T11:43:45.801Z,-70
2023-02-15T11:46:13.708Z,-72
2023-02-15T11:48:41.548Z,-72
2023-02-15T11:51:09.387Z,-72
2023-02-15T11:53:37.152Z,-72
2023-02-15T11:56:07.148Z,-72
2023-02-15T11:58:35.008Z,-72
2023-02-15T12:01:03.219Z,-72
2023-02-15T12:03:31.236Z,-72
2023-02-15T12:05:59.487Z,-72
2023-02-15T12:08:27.294Z,-72
2023-02-15T12:10:55.101Z,-72
2023-02-15T12:13:22.921Z,-72
2023-02-15T12:15:51.033Z,-71
2023-02-15T12:18:18.858Z,-72
2023-02-15T12:20:46.641Z,-69
2023-02-15T12:23:14.445Z,-69
2023-02-15T12:25:42.350Z,-69
2023-02-15T12:28:10.206Z,-69
2023-02-15T12:30:38.147Z,-70
2023-02-15T12:33:06.162Z,-69
2023-02-15T12:35:34.640Z,-69
2023-02-15T12:38:02.402Z,-70
2023-02-15T12:40:31.598Z,-69
2023-02-15T12:42:59.842Z,-69
2023-02-15T12:45:27.742Z,-70
2023-02-15T12:47:55.624Z,-70
2023-02-15T12:50:23.513Z,-72
2023-02-15T12:52:51.306Z,-72
2023-02-15T12:55:19.185Z,-71
2023-02-15T12:57:48.270Z,-72
2023-02-15T13:00:16.240Z,-72
2023-02-15T13:02:44.289Z,-72
2023-02-15T13:05:14.637Z,-72
2023-02-15T13:07:42.421Z,-71
2023-02-15T13:10:10.321Z,-72
2023-02-15T13:12:38.179Z,-71
2023-02-15T13:15:06.453Z,-72
2023-02-15T13:17:35.545Z,-72
2023-02-15T13:20:03.660Z,-72
2023-02-15T13:22:31.514Z,-73
2023-02-15T13:24:59.442Z,-72
2023-02-15T13:27:27.217Z,-72
2023-02-15T13:29:55.316Z,-72
2023-02-15T13:32:23.101Z,-72
2023-02-15T13:34:51.186Z,-72
2023-02-15T13:37:18.981Z,-72
2023-02-15T13:39:46.767Z,-72
2023-02-15T13:42:14.540Z,-71
2023-02-15T13:44:42.334Z,-72
2023-02-15T13:47:10.474Z,-72
2023-02-15T13:49:38.421Z,-72
2023-02-15T13:52:06.375Z,-72
2023-02-15T13:54:34.152Z,-72
2023-02-15T13:57:02.966Z,-72
2023-02-15T13:59:30.770Z,-71
2023-02-15T14:01:58.592Z,-72
2023-02-15T14:04:26.377Z,-71
2023-02-15T14:06:54.199Z,-72
2023-02-15T14:09:21.986Z,-71
2023-02-15T14:11:49.755Z,-72
2023-02-15T14:14:17.556Z,-71
2023-02-15T14:17:00.716Z,-71
2023-02-15T14:19:33.065Z,-72
2023-02-15T14:22:01.871Z,-72
2023-02-15T14:24:29.653Z,-71
2023-02-15T14:26:57.488Z,-72
2023-02-15T14:29:25.242Z,-72
2023-02-15T14:31:53.109Z,-72
2023-02-15T14:34:20.932Z,-72
2023-02-15T14:36:48.754Z,-71
2023-02-15T14:39:30.429Z,-72
2023-02-15T14:41:58.316Z,-72
2023-02-15T14:44:26.075Z,-72
2023-02-15T14:46:53.840Z,-72
2023-02-15T14:49:21.627Z,-72
2023-02-15T14:51:50.471Z,-72
2023-02-15T14:54:18.284Z,-72
2023-02-15T14:56:46.426Z,-71
2023-02-15T14:59:14.204Z,-72
2023-02-15T15:01:42.001Z,-70
2023-02-15T15:04:10.240Z,-72
2023-02-15T15:06:38.196Z,-72
2023-02-15T15:09:05.992Z,-72
2023-02-15T15:11:42.995Z,-71
2023-02-15T15:14:11.376Z,-68
2023-02-15T15:16:39.200Z,-69
2023-02-15T15:19:07.313Z,-69
2023-02-15T15:21:35.105Z,-69
2023-02-15T15:24:02.886Z,-70
2023-02-15T15:26:30.900Z,-71
2023-02-15T15:28:58.749Z,-70
2023-02-15T15:31:26.645Z,-69
2023-02-15T15:33:54.421Z,-70
2023-02-15T15:36:22.232Z,-73
2023-02-15T15:38:50.154Z,-69
2023-02-15T15:41:17.941Z,-69
2023-02-15T15:43:45.715Z,-69
2023-02-15T15:46:13.505Z,-69
2023-02-15T15:48:41.376Z,-69
2023-02-15T15:51:09.144Z,-69
2023-02-15T15:53:36.955Z,-72
2023-02-15T15:56:04.976Z,-74
2023-02-15T15:58:33.022Z,-73
2023-02-15T16:01:00.944Z,-73
2023-02-15T16:03:28.852Z,-69
2023-02-15T16:05:57.234Z,-69
2023-02-15T16:08:25.053Z,-69
2023-02-15T16:10:52.810Z,-68
2023-02-15T16:13:26.786Z,-71
2023-02-15T16:16:00.048Z,-69
2023-02-15T16:18:28.137Z,-70
2023-02-15T16:20:55.943Z,-70
2023-02-15T16:23:24.112Z,-70
2023-02-15T16:25:51.967Z,-70
2023-02-15T16:28:21.298Z,-70
2023-02-15T16:30:49.362Z,-70
2023-02-15T16:33:17.451Z,-70
2023-02-15T16:35:45.177Z,-70
2023-02-15T16:38:12.987Z,-70
2023-02-15T16:40:40.751Z,-70
2023-02-15T16:43:09.113Z,-70
2023-02-15T16:45:38.135Z,-70
2023-02-15T16:48:05.955Z,-70
2023-02-15T16:50:33.746Z,-71
2023-02-15T16:53:01.640Z,-71
2023-02-15T16:55:29.449Z,-71
2023-02-15T16:57:57.297Z,-71
2023-02-15T17:00:25.063Z,-71
2023-02-15T17:02:56.530Z,-71
2023-02-15T17:05:24.574Z,-71
2023-02-15T17:07:52.531Z,-72
2023-02-15T17:10:20.449Z,-72
2023-02-15T17:12:48.284Z,-71
2023-02-15T17:15:16.063Z,-71
2023-02-15T17:17:45.362Z,-71
2023-02-15T17:20:13.505Z,-73
2023-02-15T17:22:41.346Z,-73
2023-02-15T17:25:09.409Z,-72
2023-02-15T17:27:37.269Z,-71
2023-02-15T17:30:05.310Z,-71
2023-02-15T17:32:34.386Z,-71
2023-02-15T17:35:04.247Z,-71
2023-02-15T17:37:32.272Z,-71
2023-02-15T17:40:00.200Z,-72
2023-02-15T17:42:28.258Z,-73
2023-02-15T17:44:56.049Z,-71
2023-02-15T17:47:25.431Z,-72
2023-02-15T17:49:53.225Z,-71
2023-02-15T17:52:21.077Z,-71
2023-02-15T17:55:06.638Z,-73
2023-02-15T17:57:34.631Z,-70
2023-02-15T18:00:20.400Z,-70
2023-02-15T18:03:05.929Z,-70
2023-02-15T18:05:51.011Z,-71
2023-02-15T18:08:36.339Z,-72
2023-02-15T18:11:21.701Z,-72
2023-02-15T18:13:49.460Z,-71
2023-02-15T18:16:17.269Z,-73
2023-02-15T18:18:45.151Z,-73
2023-02-15T18:21:12.911Z,-73
2023-02-15T18:23:40.743Z,-73
2023-02-15T18:26:08.563Z,-72
2023-02-15T18:28:36.464Z,-73
2023-02-15T18:31:04.589Z,-71
2023-02-15T18:33:32.698Z,-73
2023-02-15T18:36:00.523Z,-73
2023-02-15T18:38:28.335Z,-71
2023-02-15T18:40:56.109Z,-73
2023-02-15T18:43:23.866Z,-73
2023-02-15T18:45:51.747Z,-73
2023-02-15T18:48:19.571Z,-73
2023-02-15T18:50:47.518Z,-71
2023-02-15T18:53:15.760Z,-70
2023-02-15T18:55:43.550Z,-71
2023-02-15T18:58:11.428Z,-72
2023-02-15T19:00:39.330Z,-72
2023-02-15T19:03:07.322Z,-71
2023-02-15T19:05:35.604Z,-71
2023-02-15T19:08:03.519Z,-72
2023-02-15T19:10:31.557Z,-72
2023-02-15T19:12:59.422Z,-72
2023-02-15T19:15:27.220Z,-72
2023-02-15T19:17:55.091Z,-72
2023-02-15T19:20:22.876Z,-72
2023-02-15T19:22:50.648Z,-72
2023-02-15T19:25:18.832Z,-71
2023-02-15T19:27:47.740Z,-72
2023-02-15T19:30:16.398Z,-72
2023-02-15T19:32:44.240Z,-72
2023-02-15T19:35:12.408Z,-70
2023-02-15T19:37:42.300Z,-75
2023-02-15T19:40:10.387Z,-75
2023-02-15T19:42:38.427Z,-70
2023-02-15T19:45:06.260Z,-70
2023-02-15T19:47:34.480Z,-70
2023-02-15T19:50:03.972Z,-70
2023-02-15T19:52:31.913Z,-70
2023-02-15T19:54:59.706Z,-70
2023-02-15T19:57:28.997Z,-70
2023-02-15T19:59:56.820Z,-69
2023-02-15T20:02:24.599Z,-73
2023-02-15T20:04:52.798Z,-69
2023-02-15T20:07:20.962Z,-71
2023-02-15T20:09:48.836Z,-71
2023-02-15T20:12:16.661Z,-71
2023-02-15T20:14:44.412Z,-72
2023-02-15T20:17:12.205Z,-71
2023-02-15T20:19:41.569Z,-72
2023-02-15T20:22:09.317Z,-71
2023-02-15T20:24:37.082Z,-71
2023-02-15T20:27:04.919Z,-71
2023-02-15T20:29:32.688Z,-71
2023-02-15T20:32:01.562Z,-71
2023-02-15T20:34:29.503Z,-71
2023-02-15T20:36:57.268Z,-71
2023-02-15T20:39:25.019Z,-72
2023-02-15T20:41:52.769Z,-71
2023-02-15T20:44:20.575Z,-72
2023-02-15T20:46:48.428Z,-71
2023-02-15T20:49:16.272Z,-71
2023-02-15T20:51:44.589Z,-71
2023-02-15T20:54:12.344Z,-71
2023-02-15T20:56:40.166Z,-70
2023-02-15T20:59:08.338Z,-75
2023-02-15T21:01:36.165Z,-76
2023-02-15T21:04:04.108Z,-75
2023-02-15T21:06:32.038Z,-76
2023-02-15T21:08:59.843Z,-78
2023-02-15T21:11:27.877Z,-76
2023-02-15T21:13:55.668Z,-75
2023-02-15T21:16:23.540Z,-75
2023-02-15T21:18:51.459Z,-76
2023-02-15T21:21:19.306Z,-76
2023-02-15T21:23:47.095Z,-76
2023-02-15T21:26:15.021Z,-76
2023-02-15T21:28:42.851Z,-76
2023-02-15T21:31:10.779Z,-76
2023-02-15T21:33:38.678Z,-75
2023-02-15T21:36:06.454Z,-76
2023-02-15T21:38:34.400Z,-76
2023-02-15T21:41:22.329Z,-76
2023-02-15T21:44:07.698Z,-76
2023-02-15T21:46:52.738Z,-76
2023-02-15T21:49:20.489Z,-77
2023-02-15T21:52:07.415Z,-76
2023-02-15T21:54:36.378Z,-76
2023-02-15T21:57:04.502Z,-76
2023-02-15T21:59:32.299Z,-76
2023-02-15T22:02:00.218Z,-76
2023-02-15T22:04:27.983Z,-76
2023-02-15T22:06:55.826Z,-76
2023-02-15T22:09:23.893Z,-75
2023-02-15T22:11:51.671Z,-76
2023-02-15T22:14:19.403Z,-76
2023-02-15T22:16:47.109Z,-76
2023-02-15T22:19:14.813Z,-76
2023-02-15T22:21:42.550Z,-75
2023-02-15T22:24:10.307Z,-76
2023-02-15T22:26:38.042Z,-76
2023-02-15T22:29:05.774Z,-76
2023-02-15T22:31:33.574Z,-76
2023-02-15T22:34:01.352Z,-76
2023-02-15T22:36:29.111Z,-76
2023-02-15T22:38:56.777Z,-76
2023-02-15T22:41:24.715Z,-75
2023-02-15T22:43:53.016Z,-76
2023-02-15T22:46:20.871Z,-76
2023-02-15T22:48:48.920Z,-76
2023-02-15T22:51:16.690Z,-75
2023-02-15T22:53:44.706Z,-76
2023-02-15T22:56:12.498Z,-76
2023-02-15T22:58:40.304Z,-75
2023-02-15T23:01:08.053Z,-76
2023-02-15T23:03:35.867Z,-75
2023-02-15T23:06:04.386Z,-76
2023-02-15T23:08:32.105Z,-76
2023-02-15T23:10:59.861Z,-76
2023-02-15T23:13:27.805Z,-75
2023-02-15T23:15:55.591Z,-75
2023-02-15T23:18:23.320Z,-76
2023-02-15T23:20:51.143Z,-76
2023-02-15T23:23:18.834Z,-76
2023-02-15T23:25:46.678Z,-76
2023-02-15T23:28:14.416Z,-75
2023-02-15T23:30:42.133Z,-76
2023-02-15T23:33:09.866Z,-76
2023-02-15T23:35:37.594Z,-76
2023-02-15T23:38:05.275Z,-76
2023-02-15T23:40:50.722Z,-75
2023-02-15T23:43:18.665Z,-75
2023-02-15T23:45:46.430Z,-76
2023-02-15T23:48:32.515Z,-76
2023-02-15T23:51:00.233Z,-76
2023-02-15T23:53:27.950Z,-76
2023-02-15T23:55:55.699Z,-76
2023-02-15T23:58:23.471Z,-76
